This is the latest recevied weather packets stored in our database for station/object WW3TRG. If no packets are shown the sender has not sent any weather packets the latest 10 day(s).
| Time | Temp. | Humidity | Pressure | Rain* | Wind** | Luminosity | Snow |
|---|---|---|---|---|---|---|---|
| 1788539903 | 27.78° C | 64% | 1012.4 hPa | 0 mm | - | 382 W/m² | - |
| 1788539603 | 27.78° C | 66% | 1012.5 hPa | 0 mm | - | 390 W/m² | - |
| 1788539302 | 27.22° C | 69% | 1012.5 hPa | 0 mm | - | 177 W/m² | - |
| 1788538998 | 27.22° C | 67% | 1012.5 hPa | 0 mm | - | 161 W/m² | - |
| 1788538693 | 27.78° C | 66% | 1012.6 hPa | 0 mm | - | 511 W/m² | - |
| 1788538388 | 26.67° C | 68% | 1012.4 hPa | 0 mm | - | 174 W/m² | - |
| 1788538084 | 27.22° C | 66% | 1012.6 hPa | 0 mm | - | 93 W/m² | - |
| 1788537779 | 27.22° C | 70% | 1012.5 hPa | 0 mm | - | 160 W/m² | - |
| 1788537479 | 27.78° C | 70% | 1012.5 hPa | 0 mm | - | 539 W/m² | - |
| 1788537179 | 28.33° C | 63% | 1012.6 hPa | 0 mm | - | 125 W/m² | - |
| 1788536877 | 27.78° C | 66% | 1012.6 hPa | 0 mm | - | 539 W/m² | - |
| 1788536572 | 27.22° C | 66% | 1012.7 hPa | 0 mm | - | 141 W/m² | - |
| 1788536268 | 26.67° C | 67% | 1012.4 hPa | 0 mm | - | 120 W/m² | - |
| 1788535963 | 26.67° C | 68% | 1012.5 hPa | 0 mm | - | 78 W/m² | - |
| 1788535660 | 27.22° C | 68% | 1012.7 hPa | 0 mm | - | 174 W/m² | - |
| 1788535354 | 26.67° C | 69% | 1012.8 hPa | 0 mm | - | 113 W/m² | - |
| 1788535049 | 26.67° C | 68% | 1012.7 hPa | 0 mm | - | 81 W/m² | - |
| 1788534748 | 26.67° C | 70% | 1012.7 hPa | 0 mm | - | 79 W/m² | - |
| 1788534444 | 26.11° C | 70% | 1012.7 hPa | 0 mm | - | 117 W/m² | - |
| 1788534139 | 26.11° C | 71% | 1012.9 hPa | 0 mm | - | 66 W/m² | - |
| 1788533837 | 26.67° C | 70% | 1012.7 hPa | 0 mm | - | 100 W/m² | - |
| 1788533533 | 26.11° C | 71% | 1013 hPa | 0 mm | - | 116 W/m² | - |
| 1788533228 | 26.11° C | 70% | 1012.8 hPa | 0 mm | - | 106 W/m² | - |
| 1788532924 | 26.11° C | 71% | 1012.8 hPa | 0 mm | - | 157 W/m² | - |
| 1788532619 | 26.11° C | 71% | 1012.6 hPa | 0 mm | - | 110 W/m² | - |
* Rain latest hour (hover to see other rain measurements)
** Current wind speed in m/s (hover to see current wind gust speed)